FVMV

Masvingo International Airport

Masvingo, Zimbabwe
METAR FVMV 201500Z 14012KT 9999 FEW040 16/08 Q1027
Observed Flight Rules
Jul-20 @ 15:00 UTC (23 hours ago) Visual Flight Rules
Wind Visibility Clouds
140° at 12 knots 10,000+ meters
  • Few at 4,000' AGL
Temperatures Readings
Current 16°C / 61°F
Dewpoint 8°C / 46°F
Humidity 59%
Altimeter 30.32" Hg
Pressure 1027 hPa
Elevation 1095
METAR FVMV 201500Z 14012KT 9999 FEW040 16/08 Q1027
Observed Flight Rules
Jul-20 @ 15:00 UTC
(23 hours ago)
VFR
Wind Visibility
140° at 12 knots 10,000+ meters
Clouds
  • Few at 4,000' AGL
Temperature Dewpoint
16°C / 61°F 8°C / 46°F
Humidity Altimeter Pressure
59% 30.32" Hg 1027 hPa